Aviation Digital Data Service (ADDS)

Output produced by METARs form (1748 UTC 21 October 2017)
found at http://www.aviationweather.gov/adds/metars/
 
KCBM 211656Z AUTO 14006KT 10SM CLR 26/18 A3017 RMK AO2 SLP218 T02590180 TSNO $
KCBM 211556Z AUTO 12011KT 10SM CLR 24/17 A3017 RMK AO2 SLP218 T02380173 TSNO $
KCBM 211456Z AUTO 12009KT 10SM CLR 20/15 A3018 RMK AO2 SLP222 T02000154 51008 TSNO $
KCBM 211356Z AUTO 12007KT 10SM CLR 17/14 A3018 RMK AO2 SLP222 T01700135 TSNO $
KCBM 211256Z AUTO 10006KT 10SM FEW240 13/13 A3017 RMK AO2 SLP219 T01290127 TSNO $
KCBM 211156Z AUTO 00000KT 10SM CLR 12/12 A3016 RMK AO2 SLP216 T01200120 10137 20108 52017 TSNO $
KCBM 211056Z AUTO 00000KT 10SM CLR 12/12 A3014 RMK AO2 SLP208 T01150115 TSNO $
KCBM 210956Z AUTO 00000KT 10SM CLR 12/12 A3012 RMK AO2 SLP202 T01230121 TSNO $
KCBM 210856Z AUTO 11005KT 10SM CLR 12/12 A3011 RMK AO2 SLP198 T01210121 58009 TSNO $
KCBM 210756Z AUTO 00000KT 10SM CLR 12/12 A3012 RMK AO2 SLP201 T01230121 TSNO $
KCBM 210656Z AUTO 12003KT 10SM CLR 13/12 A3013 RMK AO2 SLP205 T01260123 TSNO $
KCBM 210556Z AUTO 12003KT 10SM CLR 13/13 A3013 RMK AO2 SLP205 T01340132 10189 20132 402650055 58001 TSNO $
KCBM 210456Z AUTO 12006KT 10SM CLR 14/14 A3013 RMK AO2 SLP205 T01410138 TSNO $
KCBM 210356Z AUTO 00000KT 10SM CLR 14/14 A3014 RMK AO2 SLP208 T01370137 TSNO $
KCBM 210256Z AUTO 00000KT 10SM CLR 15/15 A3014 RMK AO2 SLP208 T01510148 53004 TSNO $
KCBM 210156Z AUTO 00000KT 10SM CLR 17/15 A3013 RMK AO2 SLP205 T01660146 TSNO $
KCBM 210056Z AUTO 12005KT 10SM CLR 19/14 A3012 RMK AO2 SLP202 T01890142 TSNO $
KCBM 202356Z AUTO 11003KT 10SM CLR 18/14 A3012 RMK AO2 SLP202 T01810144 10265 20181 55002 TSNO $
KCBM 202256Z AUTO 00000KT 10SM CLR 22/15 A3012 RMK AO2 SLP202 T02230154 TSNO $
KCBM 202156Z AUTO 09006KT 10SM CLR 25/15 A3012 RMK AO2 SLP202 T02470150 TSNO $
KCBM 202056Z AUTO 12008KT 10SM CLR 26/15 A3013 RMK AO2 SLP205 T02590153 56022 TSNO $
KCBM 201956Z AUTO 09005KT 10SM CLR 26/16 A3014 RMK AO2 SLP208 T02630156 TSNO $
KCBM 201856Z AUTO 14008KT 10SM CLR 26/16 A3016 RMK AO2 SLP215 T02560159 TSNO $
KCBM 201756Z AUTO 07003KT 10SM CLR 25/16 A3020 RMK AO2 SLP229 T02490160 10254 20055 57024 TSNO $
KCBM 201656Z AUTO 11004KT 10SM CLR 24/16 A3023 RMK AO2 SLP239 T02360156 TSNO $
KCBM 201556Z AUTO 10003KT 10SM CLR 21/15 A3025 RMK AO2 SLP246 T02140148 TSNO $
KCBM 201456Z AUTO 11004KT 10SM CLR 18/14 A3027 RMK AO2 SLP253 T01810138 52009 TSNO $
KCBM 201356Z AUTO 00000KT 10SM CLR 13/13 A3027 RMK AO2 SLP253 T01320130 TSNO $
KCBM 201256Z AUTO 00000KT 10SM CLR 08/08 A3025 RMK AO2 SLP247 T00830083 TSNO $
KCBM 201211Z AUTO 00000KT 9SM CLR 06/06 A3024 RMK AO2 SLP243 TSNO $
KCBM 201207Z 00000KT 2SM BR CLR 06/06 A3024 RMK SLP243 TSNO $
KCBM 201206Z AUTO 00000KT 4SM BR CLR 06/06 A3024 RMK AO2 SLP243 TSNO $
KCBM 201201Z AUTO 00000KT 1/2SM R31C/1200VP6000FT FG CLR 06/06 A3024 RMK AO2 VIS 1/2V10 SLP243 TSNO $
KCBM 201156Z AUTO 00000KT 6SM M CLR 06/06 A3024 RMK AO2 SLP243 T00620062 10091 20058 52007 TSNO $
KCBM 201056Z AUTO 00000KT 10SM CLR 06/06 A3023 RMK AO2 VIS 1 3/8 RWY13C SLP239 T00590059 TSNO $
KCBM 200956Z AUTO 00000KT 10SM CLR 07/07 A3023 RMK AO2 SLP239 T00730073 TSNO $
KCBM 200856Z AUTO 00000KT 10SM CLR 07/07 A3022 RMK AO2 SLP236 T00720072 50003 TSNO $
KCBM 200756Z AUTO 00000KT 9SM CLR 08/08 A3022 RMK AO2 SLP236 T00770077 TSNO $
KCBM 200656Z AUTO 00000KT 10SM CLR 08/08 A3022 RMK AO2 SLP236 T00770077 TSNO $
KCBM 200556Z AUTO 00000KT 10SM CLR 08/08 A3021 RMK AO2 SLP232 T00840084 10169 20081 402550044 58001 TSNO $
KCBM 200456Z AUTO 00000KT 10SM CLR 10/10 A3022 RMK AO2 SLP236 T00960096 TSNO $
KCBM 200356Z AUTO 00000KT 10SM CLR 11/11 A3022 RMK AO2 SLP236 T01070107 TSNO $
KCBM 200256Z AUTO 00000KT 10SM CLR 12/12 A3021 RMK AO2 SLP232 T01170117 50006 TSNO $
KCBM 200156Z AUTO 00000KT 10SM CLR 13/13 A3020 RMK AO2 SLP230 T01300130 TSNO $
KCBM 200056Z AUTO 00000KT 10SM CLR 14/13 A3020 RMK AO2 SLP230 T01390133 TSNO $
KCBM 192356Z AUTO 00000KT 10SM CLR 17/14 A3020 RMK AO2 SLP230 T01670140 10255 20166 51000 TSNO $
KCBM 192256Z AUTO 00000KT 10SM CLR 22/14 A3019 RMK AO2 SLP226 T02150141 TSNO $
KCBM 192156Z AUTO 06006KT 10SM CLR 24/13 A3020 RMK AO2 SLP229 T02430132 TSNO $
KCBM 192056Z AUTO 00000KT 10SM CLR 25/13 A3019 RMK AO2 SLP226 T02530128 56020 TSNO $
KCBM 191956Z AUTO 00000KT 10SM CLR 25/13 A3020 RMK AO2 SLP229 T02510130 TSNO $
KCBM 191856Z AUTO 00000KT 10SM CLR 24/12 A3022 RMK AO2 SLP236 T02370123 TSNO $
KCBM 191756Z AUTO 17003KT 10SM CLR 23/13 A3025 RMK AO2 SLP246 T02290125 10231 20052 58014 TSNO $
KCBM 191656Z AUTO 00000KT 10SM CLR 22/13 A3028 RMK AO2 SLP256 T02210126 TSNO $
KCBM 191556Z AUTO 18003KT 10SM CLR 20/12 A3030 RMK AO2 SLP263 T01950118 TSNO $
KCBM 191456Z AUTO 16005KT 10SM CLR 17/11 A3030 RMK AO2 SLP263 T01690114 51016 TSNO $
KCBM 191356Z AUTO 00000KT 10SM CLR 13/11 A3029 RMK AO2 SLP260 T01290110 TSNO $
KCBM 191256Z AUTO 00000KT 10SM CLR 08/08 A3027 RMK AO2 SLP254 T00750075 TSNO $
KCBM 191216Z AUTO 00000KT 5SM BR CLR 06/06 A3026 RMK AO2 SLP250 TSNO $
KCBM 191211Z AUTO 00000KT 4SM BR CLR 06/06 A3025 RMK AO2 SLP247 TSNO $
KCBM 191156Z AUTO 00000KT 10SM CLR 05/05 A3025 RMK AO2 SLP247 T00520051 10078 20044 52013 TSNO $
KCBM 191136Z AUTO 00000KT 7SM CLR 05/05 A3024 RMK AO2 SLP243 TSNO $
KCBM 191126Z AUTO 00000KT 2 1/2SM BR CLR 06/06 A3025 RMK AO2 VIS 2 1/2V10 SLP247 TSNO $
KCBM 191056Z AUTO 00000KT 10SM CLR 06/06 A3025 RMK AO2 SLP246 T00570056 TSNO $
KCBM 190956Z AUTO 00000KT 10SM CLR 06/06 A3022 RMK AO2 SLP236 T00590058 TSNO $
KCBM 190856Z AUTO 00000KT 10SM CLR 06/06 A3021 RMK AO2 SLP232 T00630062 55001 TSNO $
KCBM 190756Z AUTO 00000KT 10SM CLR 07/07 A3021 RMK AO2 SLP232 T00690068 TSNO $
KCBM 190656Z AUTO 00000KT 10SM CLR 07/07 A3021 RMK AO2 SLP232 T00670066 TSNO $
KCBM 190556Z AUTO 00000KT 10SM CLR 07/07 A3021 RMK AO2 SLP233 T00690068 10148 20069 402320056 58005 TSNO $
KCBM 190456Z AUTO 00000KT 10SM CLR 08/08 A3022 RMK AO2 SLP236 T00820081 TSNO $
KCBM 190356Z AUTO 00000KT 10SM CLR 09/09 A3023 RMK AO2 SLP239 T00900088 TSNO $
KCBM 190256Z AUTO 00000KT 10SM CLR 09/08 A3023 RMK AO2 SLP240 T00880082 51006 TSNO $
KCBM 190156Z AUTO 00000KT 10SM CLR 10/09 A3023 RMK AO2 SLP240 T00960088 TSNO $
KCBM 190056Z AUTO 00000KT 10SM CLR 13/10 A3022 RMK AO2 SLP237 T01270099 TSNO $
KCBM 182356Z AUTO 00000KT 10SM CLR 15/11 A3021 RMK AO2 SLP233 T01510107 10232 20150 53005 TSNO $
KCBM 182256Z AUTO 09003KT 10SM CLR 21/10 A3020 RMK AO2 SLP229 T02070102 TSNO $
KCBM 182156Z AUTO 14006KT 10SM CLR 23/10 A3019 RMK AO2 SLP226 T02290100 TSNO $
KCBM 182056Z AUTO 15005KT 10SM CLR 23/10 A3020 RMK AO2 SLP229 T02290096 57023 TSNO $
KCBM 181956Z AUTO 09005KT 10SM CLR 23/10 A3021 RMK AO2 SLP232 T02270098 TSNO $
KCBM 181856Z AUTO 17006KT 10SM CLR 22/10 A3023 RMK AO2 SLP239 T02210096 TSNO $
KCBM 181756Z AUTO 00000KT 10SM CLR 21/10 A3026 RMK AO2 SLP249 T02080097 10211 20058 58014 TSNO $